createdAt,value
2017-09-27T00:01:14.479Z,9.08
2017-09-27T00:03:42.819Z,9.10
2017-09-27T00:06:11.160Z,9.11
2017-09-27T00:08:39.527Z,9.17
2017-09-27T00:11:07.878Z,9.28
2017-09-27T00:13:36.219Z,9.43
2017-09-27T00:16:04.570Z,9.46
2017-09-27T00:18:32.900Z,9.37
2017-09-27T00:21:01.500Z,9.32
2017-09-27T00:23:29.872Z,9.39
2017-09-27T00:25:58.241Z,9.35
2017-09-27T00:28:26.588Z,9.40
2017-09-27T00:30:54.950Z,9.45
2017-09-27T00:33:23.297Z,9.56
2017-09-27T00:35:51.663Z,9.49
2017-09-27T00:38:20.027Z,9.59
2017-09-27T00:40:48.370Z,9.52
2017-09-27T00:43:16.712Z,9.47
2017-09-27T00:45:45.051Z,9.58
2017-09-27T00:48:13.392Z,9.53
2017-09-27T00:50:41.910Z,9.48
2017-09-27T00:53:10.243Z,9.47
2017-09-27T00:55:38.582Z,9.44
2017-09-27T00:58:06.955Z,9.41
2017-09-27T01:00:35.318Z,9.51
2017-09-27T01:03:03.692Z,9.52
2017-09-27T01:05:32.037Z,9.52
2017-09-27T01:08:00.562Z,9.67
2017-09-27T01:10:28.902Z,9.74
2017-09-27T01:12:57.246Z,9.67
2017-09-27T01:15:25.590Z,9.62
2017-09-27T01:17:53.930Z,9.59
2017-09-27T01:20:22.406Z,9.62
2017-09-27T01:22:50.750Z,9.56
2017-09-27T01:25:19.094Z,9.56
2017-09-27T01:27:47.430Z,9.62
2017-09-27T01:30:15.794Z,9.70
2017-09-27T01:32:44.139Z,9.79
2017-09-27T01:35:12.479Z,9.68
2017-09-27T01:37:40.874Z,9.66
2017-09-27T01:40:09.211Z,9.62
2017-09-27T01:42:37.551Z,9.73
2017-09-27T01:45:05.915Z,9.73
2017-09-27T01:47:34.261Z,9.79
2017-09-27T01:50:02.847Z,9.74
2017-09-27T01:52:31.186Z,9.74
2017-09-27T01:54:59.549Z,9.72
2017-09-27T01:57:28.366Z,9.71
2017-09-27T01:59:56.707Z,9.69
2017-09-27T02:02:25.063Z,9.73
2017-09-27T02:04:53.396Z,9.70
2017-09-27T02:07:21.759Z,9.66
2017-09-27T02:09:50.098Z,9.67
2017-09-27T02:12:18.470Z,9.59
2017-09-27T02:14:46.839Z,9.57
2017-09-27T02:17:15.190Z,9.53
2017-09-27T02:19:43.667Z,9.53
2017-09-27T02:22:12.006Z,9.52
2017-09-27T02:24:40.353Z,9.49
2017-09-27T02:27:08.687Z,9.46
2017-09-27T02:29:37.023Z,9.50
2017-09-27T02:32:05.366Z,9.53
2017-09-27T02:34:33.791Z,9.61
2017-09-27T02:37:02.126Z,9.65
2017-09-27T02:39:30.592Z,9.59
2017-09-27T02:41:58.930Z,9.60
2017-09-27T02:44:27.271Z,9.53
2017-09-27T02:46:55.612Z,9.52
2017-09-27T02:49:23.951Z,9.55
2017-09-27T02:51:52.312Z,9.55
2017-09-27T02:54:20.655Z,9.45
2017-09-27T02:56:49.017Z,9.48
2017-09-27T02:59:17.383Z,9.44
2017-09-27T03:01:46.183Z,9.30
2017-09-27T03:04:14.526Z,9.18
2017-09-27T03:06:42.862Z,9.06
2017-09-27T03:09:11.234Z,9.14
2017-09-27T03:11:39.570Z,9.04
2017-09-27T03:14:07.942Z,8.93
2017-09-27T03:16:36.279Z,8.83
2017-09-27T03:19:04.618Z,8.73
2017-09-27T03:21:33.014Z,8.66
2017-09-27T03:24:01.354Z,8.62
2017-09-27T03:26:29.687Z,8.55
2017-09-27T03:28:58.039Z,8.50
2017-09-27T03:31:26.562Z,8.50
2017-09-27T03:33:54.911Z,8.41
2017-09-27T03:36:23.251Z,8.35
2017-09-27T03:38:51.587Z,8.33
2017-09-27T03:41:19.935Z,8.34
2017-09-27T03:43:48.403Z,8.44
2017-09-27T03:46:16.743Z,8.38
2017-09-27T03:48:45.086Z,8.36
2017-09-27T03:51:13.418Z,8.32
2017-09-27T03:53:41.792Z,8.36
2017-09-27T03:56:10.158Z,8.34
2017-09-27T03:58:38.526Z,8.44
2017-09-27T04:01:06.862Z,8.51
2017-09-27T04:03:35.328Z,8.56
2017-09-27T04:06:04.561Z,8.55
2017-09-27T04:08:32.912Z,8.56
2017-09-27T04:11:02.018Z,8.59
2017-09-27T04:13:30.415Z,8.60
2017-09-27T04:15:58.755Z,8.60
2017-09-27T04:18:27.090Z,8.65
2017-09-27T04:20:55.562Z,8.67
2017-09-27T04:23:23.898Z,8.73
2017-09-27T04:25:52.252Z,8.85
2017-09-27T04:28:20.590Z,8.81
2017-09-27T04:30:48.931Z,9.02
2017-09-27T04:33:17.298Z,9.10
2017-09-27T04:35:45.653Z,9.17
2017-09-27T04:38:13.999Z,9.12
2017-09-27T04:40:42.342Z,9.19
2017-09-27T04:43:10.906Z,9.09
2017-09-27T04:45:39.466Z,9.05
2017-09-27T04:48:07.811Z,9.00
2017-09-27T04:50:36.150Z,8.95
2017-09-27T04:53:04.527Z,8.90
2017-09-27T04:55:32.902Z,9.02
2017-09-27T04:58:01.239Z,8.98
2017-09-27T05:00:29.605Z,9.08
2017-09-27T05:02:57.938Z,9.05
2017-09-27T05:05:26.313Z,9.35
2017-09-27T05:07:54.659Z,9.32
2017-09-27T05:10:23.018Z,9.32
2017-09-27T05:12:51.368Z,9.25
2017-09-27T05:15:19.714Z,9.21
2017-09-27T05:17:48.061Z,9.15
2017-09-27T05:20:16.424Z,9.10
2017-09-27T05:22:44.764Z,9.10
2017-09-27T05:25:13.098Z,9.05
2017-09-27T05:27:41.439Z,9.11
2017-09-27T05:30:09.782Z,9.13
2017-09-27T05:32:38.135Z,9.26
2017-09-27T05:35:06.465Z,9.24
2017-09-27T05:37:34.815Z,9.32
2017-09-27T05:40:03.162Z,9.33
2017-09-27T05:42:31.510Z,9.54
2017-09-27T05:44:59.847Z,9.51
2017-09-27T05:47:28.212Z,9.59
2017-09-27T05:49:56.557Z,9.57
2017-09-27T05:52:24.918Z,9.44
2017-09-27T05:54:53.290Z,9.51
2017-09-27T05:57:21.631Z,9.70
2017-09-27T05:59:50.016Z,9.74
2017-09-27T06:02:18.487Z,9.67
2017-09-27T06:04:46.829Z,9.63
2017-09-27T06:07:15.169Z,9.56
2017-09-27T06:09:43.554Z,9.63
2017-09-27T06:12:11.887Z,9.87
2017-09-27T06:14:40.231Z,9.76
2017-09-27T06:17:08.567Z,9.73
2017-09-27T06:19:36.931Z,9.69
2017-09-27T06:22:05.309Z,9.72
2017-09-27T06:24:33.645Z,10.04
2017-09-27T06:27:02.123Z,10.24
2017-09-27T06:29:30.518Z,10.32
2017-09-27T06:31:58.862Z,10.43
2017-09-27T06:34:27.211Z,10.29
2017-09-27T06:36:55.561Z,10.29
2017-09-27T06:39:23.903Z,10.54
2017-09-27T06:41:52.246Z,10.72
2017-09-27T06:44:20.718Z,10.76
2017-09-27T06:46:49.068Z,10.95
2017-09-27T06:49:17.423Z,11.03
2017-09-27T06:51:45.767Z,11.19
2017-09-27T06:54:14.899Z,11.29
2017-09-27T06:56:43.280Z,11.50
2017-09-27T06:59:11.768Z,11.59
2017-09-27T07:01:40.110Z,11.47
2017-09-27T07:04:08.464Z,11.61
2017-09-27T07:06:36.803Z,11.65
2017-09-27T07:09:05.151Z,11.84
2017-09-27T07:11:33.525Z,11.75
2017-09-27T07:14:01.874Z,11.70
2017-09-27T07:16:30.214Z,11.76
2017-09-27T07:18:58.590Z,11.87
2017-09-27T07:21:26.962Z,11.84
2017-09-27T07:23:55.317Z,11.78
2017-09-27T07:26:23.690Z,11.95
2017-09-27T07:28:52.039Z,12.01
2017-09-27T07:31:20.378Z,12.05
2017-09-27T07:33:48.842Z,12.59
2017-09-27T07:36:17.212Z,12.91
2017-09-27T07:38:45.579Z,13.06
2017-09-27T07:41:13.935Z,13.19
2017-09-27T07:43:42.310Z,13.68
2017-09-27T07:46:10.660Z,13.85
2017-09-27T07:48:39.030Z,14.10
2017-09-27T07:51:07.511Z,14.42
2017-09-27T07:53:35.861Z,14.79
2017-09-27T07:56:04.207Z,14.53
2017-09-27T07:58:32.554Z,14.63
2017-09-27T08:01:00.918Z,14.55
2017-09-27T08:03:29.263Z,14.59
2017-09-27T08:05:57.612Z,14.47
2017-09-27T08:08:25.984Z,14.59
2017-09-27T08:10:54.362Z,14.92
2017-09-27T08:13:22.832Z,15.41
2017-09-27T08:15:51.174Z,15.74
2017-09-27T08:18:19.519Z,15.69
2017-09-27T08:20:47.910Z,16.09
2017-09-27T08:23:16.255Z,16.25
2017-09-27T08:25:44.600Z,16.30
2017-09-27T08:28:12.947Z,16.27
2017-09-27T08:30:41.294Z,16.35
2017-09-27T08:33:09.689Z,16.14
2017-09-27T08:35:38.063Z,16.07
2017-09-27T08:38:06.415Z,15.98
2017-09-27T08:40:34.759Z,15.87
2017-09-27T08:43:03.128Z,15.92
2017-09-27T08:45:31.480Z,16.10
2017-09-27T08:47:59.827Z,16.42
2017-09-27T08:50:28.198Z,16.56
2017-09-27T08:52:56.569Z,17.02
2017-09-27T08:55:24.922Z,17.50
2017-09-27T08:57:53.295Z,18.44
2017-09-27T09:00:21.641Z,19.33
2017-09-27T09:02:50.011Z,20.32
2017-09-27T09:05:18.363Z,21.35
2017-09-27T09:07:46.711Z,21.59
2017-09-27T09:10:15.083Z,22.11
2017-09-27T09:12:43.428Z,21.45
2017-09-27T09:15:11.774Z,20.68
2017-09-27T09:17:40.126Z,21.23
2017-09-27T09:20:08.475Z,21.99
2017-09-27T09:22:36.874Z,22.32
2017-09-27T09:25:05.222Z,21.77
2017-09-27T09:27:33.565Z,21.82
2017-09-27T09:30:01.918Z,20.71
2017-09-27T09:32:30.271Z,21.04
2017-09-27T09:34:58.623Z,21.21
2017-09-27T09:37:26.994Z,21.89
2017-09-27T09:39:55.390Z,22.10
2017-09-27T09:42:23.758Z,20.79
2017-09-27T09:44:52.110Z,19.56
2017-09-27T09:47:20.494Z,19.08
2017-09-27T09:49:48.844Z,19.10
2017-09-27T09:52:17.318Z,18.91
2017-09-27T09:54:45.668Z,18.80
2017-09-27T09:57:14.015Z,18.99
2017-09-27T09:59:42.359Z,19.43
2017-09-27T10:02:10.710Z,19.29
2017-09-27T10:04:39.079Z,19.26
2017-09-27T10:07:07.432Z,19.18
2017-09-27T10:09:35.779Z,19.25
2017-09-27T10:12:04.146Z,19.04
2017-09-27T10:14:32.500Z,19.24
2017-09-27T10:17:00.842Z,18.64
2017-09-27T10:19:29.233Z,18.48
2017-09-27T10:21:57.615Z,18.29
2017-09-27T10:24:25.965Z,18.31
2017-09-27T10:26:54.335Z,18.52
2017-09-27T10:29:22.674Z,19.34
2017-09-27T10:31:51.033Z,20.28
2017-09-27T10:34:19.509Z,20.66
2017-09-27T10:36:47.862Z,21.35
2017-09-27T10:39:16.208Z,22.02
2017-09-27T10:41:44.576Z,22.82
2017-09-27T10:44:12.920Z,23.31
2017-09-27T10:46:41.266Z,24.12
2017-09-27T10:49:09.610Z,23.46
2017-09-27T10:51:37.991Z,22.93
2017-09-27T10:54:06.390Z,21.35
2017-09-27T10:56:34.739Z,20.77
2017-09-27T10:59:03.090Z,20.20
2017-09-27T11:01:32.367Z,19.61
2017-09-27T11:04:00.808Z,19.27
2017-09-27T11:06:29.163Z,19.43
2017-09-27T11:08:57.519Z,19.30
2017-09-27T11:11:25.862Z,20.14
2017-09-27T11:13:54.214Z,21.24
2017-09-27T11:16:22.580Z,22.67
2017-09-27T11:18:50.934Z,23.56
2017-09-27T11:21:19.287Z,24.13
2017-09-27T11:23:47.672Z,23.54
2017-09-27T11:26:16.027Z,22.31
2017-09-27T11:28:44.417Z,21.55
2017-09-27T11:31:12.788Z,21.74
2017-09-27T11:33:41.163Z,21.05
2017-09-27T11:36:09.531Z,21.80
2017-09-27T11:38:37.886Z,22.13
2017-09-27T11:41:06.270Z,23.35
2017-09-27T11:43:34.635Z,24.00
2017-09-27T11:46:03.018Z,22.43
2017-09-27T11:48:31.370Z,21.88
2017-09-27T11:50:59.936Z,22.63
2017-09-27T11:53:28.302Z,23.28
2017-09-27T11:55:56.644Z,23.22
2017-09-27T11:58:24.990Z,22.15
2017-09-27T12:00:53.340Z,22.19
2017-09-27T12:03:21.712Z,21.32
2017-09-27T12:05:50.088Z,20.95
2017-09-27T12:08:18.474Z,21.05
2017-09-27T12:10:46.827Z,21.18
2017-09-27T12:13:15.220Z,22.11
2017-09-27T12:15:49.622Z,23.23
2017-09-27T12:18:18.001Z,21.96
2017-09-27T12:20:54.743Z,21.60
2017-09-27T12:23:23.236Z,21.58
2017-09-27T12:28:51.149Z,21.37
2017-09-27T12:31:20.961Z,21.23
2017-09-27T12:33:49.788Z,20.77
2017-09-27T12:36:19.588Z,19.96
2017-09-27T12:38:50.545Z,20.06
2017-09-27T12:44:14.608Z,20.21
2017-09-27T12:46:48.056Z,20.09
2017-09-27T12:49:18.050Z,19.70
2017-09-27T12:52:08.473Z,20.06
2017-09-27T13:00:56.231Z,19.73
2017-09-27T13:03:25.072Z,19.67
2017-09-27T13:05:54.798Z,19.43
2017-09-27T13:08:29.216Z,19.57
2017-09-27T13:10:58.114Z,19.33
2017-09-27T13:13:31.852Z,18.92
2017-09-27T13:16:19.145Z,18.97
2017-09-27T13:18:53.905Z,18.89
2017-09-27T13:21:26.686Z,18.61
2017-09-27T13:24:08.832Z,18.67
2017-09-27T13:26:37.926Z,18.46
2017-09-27T13:29:07.118Z,18.21
2017-09-27T13:31:39.090Z,18.07
2017-09-27T13:34:07.904Z,18.15
2017-09-27T13:36:37.102Z,18.24
2017-09-27T13:39:06.983Z,18.18
2017-09-27T13:41:36.459Z,18.26
2017-09-27T13:44:07.343Z,18.25
2017-09-27T13:46:38.750Z,18.20
2017-09-27T13:49:08.445Z,17.92
2017-09-27T13:51:36.902Z,17.75
2017-09-27T13:54:05.252Z,17.51
2017-09-27T13:56:33.598Z,17.60
2017-09-27T13:59:01.978Z,17.45
2017-09-27T14:01:30.359Z,17.63
2017-09-27T14:03:58.703Z,17.48
2017-09-27T14:06:27.058Z,17.71
2017-09-27T14:08:55.430Z,17.39
2017-09-27T14:11:23.774Z,17.64
2017-09-27T14:13:52.120Z,17.63
2017-09-27T14:16:20.599Z,17.61
2017-09-27T14:18:48.947Z,17.54
2017-09-27T14:21:17.295Z,17.38
2017-09-27T14:23:45.643Z,17.14
2017-09-27T14:26:13.986Z,17.41
2017-09-27T14:28:42.378Z,17.64
2017-09-27T14:31:10.727Z,17.87
2017-09-27T14:33:39.076Z,17.81
2017-09-27T14:36:07.515Z,17.74
2017-09-27T14:38:35.871Z,17.10
2017-09-27T14:41:04.347Z,17.15
2017-09-27T14:43:32.704Z,17.27
2017-09-27T14:46:01.051Z,17.33
2017-09-27T14:48:29.398Z,17.23
2017-09-27T14:50:57.744Z,17.21
2017-09-27T14:53:26.117Z,17.06
2017-09-27T14:55:54.468Z,17.01
2017-09-27T14:58:22.818Z,17.04
2017-09-27T15:00:51.175Z,16.69
2017-09-27T15:03:19.522Z,16.69
2017-09-27T15:05:47.895Z,16.65
2017-09-27T15:08:16.248Z,16.43
2017-09-27T15:10:44.626Z,16.31
2017-09-27T15:13:12.983Z,16.24
2017-09-27T15:15:41.344Z,16.22
2017-09-27T15:18:09.717Z,16.08
2017-09-27T15:20:38.059Z,15.55
2017-09-27T15:23:06.405Z,15.34
2017-09-27T15:25:34.750Z,15.15
2017-09-27T15:28:03.126Z,15.17
2017-09-27T15:30:31.508Z,15.20
2017-09-27T15:32:59.999Z,15.08
2017-09-27T15:35:28.334Z,15.06
2017-09-27T15:37:56.706Z,15.07
2017-09-27T15:40:25.057Z,15.16
2017-09-27T15:42:53.426Z,15.22
2017-09-27T15:45:21.906Z,15.20
2017-09-27T15:47:50.387Z,15.30
2017-09-27T15:50:18.732Z,15.24
2017-09-27T15:52:47.082Z,15.33
2017-09-27T15:55:15.429Z,15.28
2017-09-27T15:57:43.777Z,15.36
2017-09-27T16:00:12.422Z,15.32
2017-09-27T16:02:40.947Z,15.27
2017-09-27T16:05:09.298Z,15.27
2017-09-27T16:07:37.647Z,15.24
2017-09-27T16:10:06.903Z,15.26
2017-09-27T16:12:35.246Z,15.22
2017-09-27T16:15:03.601Z,15.13
2017-09-27T16:17:32.085Z,15.17
2017-09-27T16:20:00.443Z,15.29
2017-09-27T16:22:28.818Z,15.27
2017-09-27T16:24:57.171Z,15.23
2017-09-27T16:27:25.526Z,15.29
2017-09-27T16:29:54.064Z,15.26
2017-09-27T16:32:22.407Z,15.21
2017-09-27T16:34:50.847Z,15.29
2017-09-27T16:37:19.210Z,15.26
2017-09-27T16:39:47.626Z,15.13
2017-09-27T16:42:15.973Z,15.13
2017-09-27T16:44:44.315Z,15.00
2017-09-27T16:47:12.689Z,14.92
2017-09-27T16:49:41.043Z,14.85
2017-09-27T16:52:09.452Z,14.90
2017-09-27T16:54:37.799Z,14.94
2017-09-27T16:57:06.146Z,14.84
2017-09-27T16:59:35.922Z,14.70
2017-09-27T17:02:13.991Z,14.78
2017-09-27T17:04:44.220Z,14.72
2017-09-27T17:07:15.810Z,14.72
2017-09-27T17:09:45.324Z,14.65
2017-09-27T17:12:16.772Z,14.63
2017-09-27T17:14:47.614Z,14.59
2017-09-27T17:17:15.966Z,14.52
2017-09-27T17:19:44.313Z,14.52
2017-09-27T17:22:12.667Z,14.55
2017-09-27T17:24:41.037Z,14.48
2017-09-27T17:27:09.430Z,14.45
2017-09-27T17:29:37.806Z,14.37
2017-09-27T17:32:06.928Z,14.38
2017-09-27T17:34:35.339Z,14.35
2017-09-27T17:37:06.469Z,14.33
2017-09-27T17:39:35.430Z,14.28
2017-09-27T17:42:03.986Z,14.18
2017-09-27T17:44:32.561Z,14.14
2017-09-27T17:47:01.555Z,14.04
2017-09-27T17:49:30.039Z,14.01
2017-09-27T17:51:58.860Z,13.90
2017-09-27T17:54:28.119Z,13.94
2017-09-27T17:56:58.618Z,13.87
2017-09-27T17:59:26.999Z,13.86
2017-09-27T18:01:55.738Z,13.83
2017-09-27T18:10:13.440Z,13.86
2017-09-27T18:12:49.165Z,13.70
2017-09-27T18:18:22.015Z,13.68
2017-09-27T18:20:50.469Z,13.68
2017-09-27T18:23:18.863Z,13.64
2017-09-27T18:25:47.780Z,13.62
2017-09-27T18:28:16.128Z,13.55
2017-09-27T18:30:44.712Z,13.50
2017-09-27T18:33:13.066Z,13.45
2017-09-27T18:35:41.414Z,13.45
2017-09-27T18:38:09.766Z,13.38
2017-09-27T18:40:38.154Z,13.30
2017-09-27T18:43:06.756Z,13.19
2017-09-27T18:45:35.267Z,13.05
2017-09-27T18:48:03.642Z,12.99
2017-09-27T18:50:33.896Z,12.97
2017-09-27T18:53:02.263Z,13.06
2017-09-27T18:55:30.626Z,13.07
2017-09-27T18:57:58.969Z,13.10
2017-09-27T19:00:27.351Z,12.97
2017-09-27T19:02:55.699Z,12.97
2017-09-27T19:05:24.053Z,13.01
2017-09-27T19:07:52.415Z,12.94
2017-09-27T19:10:20.850Z,12.82
2017-09-27T19:12:49.551Z,12.60
2017-09-27T19:15:19.054Z,12.43
2017-09-27T19:17:47.565Z,12.27
2017-09-27T19:20:16.618Z,12.18
2017-09-27T19:22:45.061Z,12.26
2017-09-27T19:25:15.325Z,12.20
2017-09-27T19:27:44.078Z,12.06
2017-09-27T19:30:12.430Z,12.04
2017-09-27T19:32:41.007Z,12.00
2017-09-27T19:35:09.644Z,11.99
2017-09-27T19:37:38.066Z,11.99
2017-09-27T19:40:06.627Z,11.84
2017-09-27T19:42:34.978Z,11.70
2017-09-27T19:45:03.350Z,11.60
2017-09-27T19:47:31.715Z,11.52
2017-09-27T19:50:02.425Z,11.56
2017-09-27T19:52:30.901Z,11.36
2017-09-27T19:54:59.545Z,11.40
2017-09-27T19:57:27.992Z,11.41
2017-09-27T19:59:56.343Z,11.42
2017-09-27T20:02:24.719Z,11.26
2017-09-27T20:04:53.126Z,11.15
2017-09-27T20:07:21.483Z,10.99
2017-09-27T20:09:49.968Z,10.94
2017-09-27T20:12:18.330Z,10.88
2017-09-27T20:14:46.749Z,10.71
2017-09-27T20:17:15.157Z,10.73
2017-09-27T20:19:43.546Z,10.68
2017-09-27T20:22:11.940Z,10.67
2017-09-27T20:24:40.392Z,10.60
2017-09-27T20:27:08.789Z,10.49
2017-09-27T20:29:37.151Z,10.43
2017-09-27T20:32:05.541Z,10.40
2017-09-27T20:34:33.946Z,10.40
2017-09-27T20:37:02.463Z,10.40
2017-09-27T20:39:30.826Z,10.32
2017-09-27T20:41:59.176Z,10.32
2017-09-27T20:44:27.551Z,10.24
2017-09-27T20:46:56.094Z,10.17
2017-09-27T20:49:24.495Z,10.19
2017-09-27T20:51:52.877Z,10.21
2017-09-27T20:54:21.255Z,10.18
2017-09-27T20:56:49.608Z,10.19
2017-09-27T20:59:18.139Z,10.13
2017-09-27T21:01:46.531Z,10.13
2017-09-27T21:04:14.884Z,10.12
2017-09-27T21:06:43.225Z,9.99
2017-09-27T21:09:11.570Z,9.93
2017-09-27T21:11:39.942Z,9.99
2017-09-27T21:14:08.284Z,9.94
2017-09-27T21:16:36.623Z,9.94
2017-09-27T21:19:05.110Z,9.84
2017-09-27T21:21:33.510Z,9.96
2017-09-27T21:24:01.963Z,9.91
2017-09-27T21:26:30.314Z,9.89
2017-09-27T21:28:58.698Z,9.80
2017-09-27T21:31:27.035Z,9.74
2017-09-27T21:33:55.472Z,9.70
2017-09-27T21:36:23.847Z,9.62
2017-09-27T21:38:52.188Z,9.56
2017-09-27T21:41:20.586Z,9.52
2017-09-27T21:43:48.959Z,9.50
2017-09-27T21:46:17.337Z,9.55
2017-09-27T21:48:45.708Z,9.44
2017-09-27T21:51:14.054Z,9.48
2017-09-27T21:53:42.422Z,9.45
2017-09-27T21:56:10.766Z,9.40
2017-09-27T21:58:39.106Z,9.46
2017-09-27T22:01:07.448Z,9.40
2017-09-27T22:03:35.811Z,9.40
2017-09-27T22:06:04.154Z,9.40
2017-09-27T22:08:32.523Z,9.61
2017-09-27T22:11:00.943Z,9.45
2017-09-27T22:13:29.299Z,9.57
2017-09-27T22:15:57.643Z,9.31
2017-09-27T22:18:25.983Z,9.27
2017-09-27T22:20:54.322Z,9.22
2017-09-27T22:23:22.691Z,9.14
2017-09-27T22:25:51.057Z,9.19
2017-09-27T22:28:19.398Z,9.16
2017-09-27T22:30:47.766Z,9.15
2017-09-27T22:33:16.109Z,9.13
2017-09-27T22:35:44.446Z,9.10
2017-09-27T22:38:12.787Z,9.17
2017-09-27T22:40:41.138Z,9.17
2017-09-27T22:43:09.599Z,9.10
2017-09-27T22:45:37.939Z,9.04
2017-09-27T22:48:06.294Z,9.00
2017-09-27T22:50:34.703Z,8.94
2017-09-27T22:53:03.104Z,8.97
2017-09-27T22:55:31.493Z,8.94
2017-09-27T22:57:59.835Z,8.94
2017-09-27T23:00:28.245Z,8.95
2017-09-27T23:02:56.574Z,8.82
2017-09-27T23:05:24.918Z,8.76
2017-09-27T23:07:53.339Z,8.80
2017-09-27T23:10:21.693Z,8.84
2017-09-27T23:12:50.034Z,8.81
2017-09-27T23:15:18.374Z,8.77
2017-09-27T23:17:46.717Z,8.86
2017-09-27T23:20:15.055Z,8.79
2017-09-27T23:22:43.391Z,8.87
2017-09-27T23:25:11.758Z,8.81
2017-09-27T23:27:40.103Z,8.70
2017-09-27T23:30:08.487Z,8.69
2017-09-27T23:32:36.822Z,8.69
2017-09-27T23:35:05.167Z,8.59
2017-09-27T23:37:33.506Z,8.57
2017-09-27T23:40:01.851Z,8.53
2017-09-27T23:42:30.226Z,8.47
2017-09-27T23:44:58.558Z,8.50
2017-09-27T23:47:27.019Z,8.48
2017-09-27T23:49:55.354Z,8.51
2017-09-27T23:52:23.694Z,8.39
2017-09-27T23:54:52.060Z,8.35
2017-09-27T23:57:20.398Z,8.34
2017-09-27T23:59:48.771Z,8.34
